sensor_id;sensor_type;location;lat;lon;timestamp;P1;durP1;ratioP1;P2;durP2;ratioP2
7191;SDS011;3637;51.494;11.958;2024-01-30T00:00:04;10.67;;;6.77;;
7191;SDS011;3637;51.494;11.958;2024-01-30T00:03:08;10.20;;;7.00;;
7191;SDS011;3637;51.494;11.958;2024-01-30T00:06:12;9.00;;;6.37;;
7191;SDS011;3637;51.494;11.958;2024-01-30T00:09:14;11.77;;;6.80;;
7191;SDS011;3637;51.494;11.958;2024-01-30T00:12:17;9.70;;;7.00;;
7191;SDS011;3637;51.494;11.958;2024-01-30T00:15:19;9.33;;;6.80;;
7191;SDS011;3637;51.494;11.958;2024-01-30T00:18:22;8.53;;;6.63;;
7191;SDS011;3637;51.494;11.958;2024-01-30T00:21:27;9.23;;;6.90;;
7191;SDS011;3637;51.494;11.958;2024-01-30T00:24:29;10.30;;;6.80;;
7191;SDS011;3637;51.494;11.958;2024-01-30T00:27:31;9.10;;;6.50;;
7191;SDS011;3637;51.494;11.958;2024-01-30T00:30:34;10.33;;;7.40;;
7191;SDS011;3637;51.494;11.958;2024-01-30T00:33:38;8.80;;;6.83;;
7191;SDS011;3637;51.494;11.958;2024-01-30T00:36:45;8.40;;;6.97;;
7191;SDS011;3637;51.494;11.958;2024-01-30T00:39:47;9.57;;;7.07;;
7191;SDS011;3637;51.494;11.958;2024-01-30T00:42:49;12.97;;;7.00;;
7191;SDS011;3637;51.494;11.958;2024-01-30T00:45:51;8.80;;;6.97;;
7191;SDS011;3637;51.494;11.958;2024-01-30T00:48:54;8.90;;;6.60;;
7191;SDS011;3637;51.494;11.958;2024-01-30T00:51:57;9.43;;;6.60;;
7191;SDS011;3637;51.494;11.958;2024-01-30T00:54:59;7.53;;;6.37;;
7191;SDS011;3637;51.494;11.958;2024-01-30T00:58:01;9.03;;;6.33;;
7191;SDS011;3637;51.494;11.958;2024-01-30T01:01:05;9.93;;;6.60;;
7191;SDS011;3637;51.494;11.958;2024-01-30T01:04:08;10.00;;;7.33;;
7191;SDS011;3637;51.494;11.958;2024-01-30T01:07:12;10.03;;;6.30;;
7191;SDS011;3637;51.494;11.958;2024-01-30T01:10:14;9.83;;;6.70;;
7191;SDS011;3637;51.494;11.958;2024-01-30T01:13:16;9.20;;;6.47;;
7191;SDS011;3637;51.494;11.958;2024-01-30T01:16:18;7.63;;;6.37;;
7191;SDS011;3637;51.494;11.958;2024-01-30T01:19:21;10.93;;;6.00;;
7191;SDS011;3637;51.494;11.958;2024-01-30T01:22:26;9.23;;;6.47;;
7191;SDS011;3637;51.494;11.958;2024-01-30T01:25:32;8.77;;;6.17;;
7191;SDS011;3637;51.494;11.958;2024-01-30T01:28:34;8.83;;;5.87;;
7191;SDS011;3637;51.494;11.958;2024-01-30T01:31:36;7.53;;;6.43;;
7191;SDS011;3637;51.494;11.958;2024-01-30T01:34:43;7.77;;;6.07;;
7191;SDS011;3637;51.494;11.958;2024-01-30T01:37:49;9.47;;;6.27;;
7191;SDS011;3637;51.494;11.958;2024-01-30T01:40:54;8.80;;;6.37;;
7191;SDS011;3637;51.494;11.958;2024-01-30T01:44:00;8.23;;;5.90;;
7191;SDS011;3637;51.494;11.958;2024-01-30T01:47:02;9.53;;;5.90;;
7191;SDS011;3637;51.494;11.958;2024-01-30T01:50:05;7.87;;;6.00;;
7191;SDS011;3637;51.494;11.958;2024-01-30T01:53:10;9.67;;;5.73;;
7191;SDS011;3637;51.494;11.958;2024-01-30T01:56:13;7.10;;;5.73;;
7191;SDS011;3637;51.494;11.958;2024-01-30T01:59:15;8.50;;;5.90;;
7191;SDS011;3637;51.494;11.958;2024-01-30T02:02:17;9.27;;;6.43;;
7191;SDS011;3637;51.494;11.958;2024-01-30T02:05:21;8.13;;;6.50;;
7191;SDS011;3637;51.494;11.958;2024-01-30T02:08:26;7.83;;;6.00;;
7191;SDS011;3637;51.494;11.958;2024-01-30T02:11:28;6.80;;;5.63;;
7191;SDS011;3637;51.494;11.958;2024-01-30T02:14:31;8.63;;;6.27;;
7191;SDS011;3637;51.494;11.958;2024-01-30T02:17:33;8.20;;;5.60;;
7191;SDS011;3637;51.494;11.958;2024-01-30T02:20:36;7.87;;;6.20;;
7191;SDS011;3637;51.494;11.958;2024-01-30T02:23:41;8.83;;;6.47;;
7191;SDS011;3637;51.494;11.958;2024-01-30T02:26:44;16.23;;;10.77;;
7191;SDS011;3637;51.494;11.958;2024-01-30T02:29:46;14.97;;;10.47;;
7191;SDS011;3637;51.494;11.958;2024-01-30T02:32:48;8.20;;;5.97;;
7191;SDS011;3637;51.494;11.958;2024-01-30T02:35:50;7.27;;;5.90;;
7191;SDS011;3637;51.494;11.958;2024-01-30T02:38:55;10.63;;;6.37;;
7191;SDS011;3637;51.494;11.958;2024-01-30T02:41:57;8.70;;;6.07;;
7191;SDS011;3637;51.494;11.958;2024-01-30T02:45:00;8.30;;;5.97;;
7191;SDS011;3637;51.494;11.958;2024-01-30T02:48:02;7.43;;;6.17;;
7191;SDS011;3637;51.494;11.958;2024-01-30T02:51:05;7.00;;;5.83;;
7191;SDS011;3637;51.494;11.958;2024-01-30T02:54:08;7.97;;;6.00;;
7191;SDS011;3637;51.494;11.958;2024-01-30T02:57:10;8.30;;;6.23;;
7191;SDS011;3637;51.494;11.958;2024-01-30T03:00:13;7.80;;;5.90;;
7191;SDS011;3637;51.494;11.958;2024-01-30T03:03:15;8.80;;;6.37;;
7191;SDS011;3637;51.494;11.958;2024-01-30T03:06:19;8.37;;;5.80;;
7191;SDS011;3637;51.494;11.958;2024-01-30T03:09:23;7.83;;;5.63;;
7191;SDS011;3637;51.494;11.958;2024-01-30T03:12:25;8.70;;;6.13;;
7191;SDS011;3637;51.494;11.958;2024-01-30T03:15:27;7.67;;;5.73;;
7191;SDS011;3637;51.494;11.958;2024-01-30T03:18:29;7.97;;;6.47;;
7191;SDS011;3637;51.494;11.958;2024-01-30T03:21:33;9.80;;;6.10;;
7191;SDS011;3637;51.494;11.958;2024-01-30T03:24:36;9.20;;;6.10;;
7191;SDS011;3637;51.494;11.958;2024-01-30T03:27:38;8.00;;;5.83;;
7191;SDS011;3637;51.494;11.958;2024-01-30T03:30:40;7.67;;;5.67;;
7191;SDS011;3637;51.494;11.958;2024-01-30T03:33:42;9.80;;;6.60;;
7191;SDS011;3637;51.494;11.958;2024-01-30T03:36:44;8.63;;;6.40;;
7191;SDS011;3637;51.494;11.958;2024-01-30T03:39:47;8.73;;;6.43;;
7191;SDS011;3637;51.494;11.958;2024-01-30T03:42:52;9.07;;;6.50;;
7191;SDS011;3637;51.494;11.958;2024-01-30T03:45:54;8.70;;;6.73;;
7191;SDS011;3637;51.494;11.958;2024-01-30T03:48:56;7.93;;;6.17;;
7191;SDS011;3637;51.494;11.958;2024-01-30T03:51:58;7.43;;;6.30;;
7191;SDS011;3637;51.494;11.958;2024-01-30T03:55:01;10.63;;;6.87;;
7191;SDS011;3637;51.494;11.958;2024-01-30T03:58:04;9.17;;;6.30;;
7191;SDS011;3637;51.494;11.958;2024-01-30T04:01:06;8.43;;;6.27;;
7191;SDS011;3637;51.494;11.958;2024-01-30T04:04:08;8.97;;;6.70;;
7191;SDS011;3637;51.494;11.958;2024-01-30T04:07:11;9.57;;;6.13;;
7191;SDS011;3637;51.494;11.958;2024-01-30T04:10:16;6.90;;;5.97;;
7191;SDS011;3637;51.494;11.958;2024-01-30T04:13:18;8.87;;;6.57;;
7191;SDS011;3637;51.494;11.958;2024-01-30T04:16:20;7.33;;;5.87;;
7191;SDS011;3637;51.494;11.958;2024-01-30T04:19:22;8.17;;;5.80;;
7191;SDS011;3637;51.494;11.958;2024-01-30T04:22:24;7.97;;;6.83;;
7191;SDS011;3637;51.494;11.958;2024-01-30T04:25:28;7.93;;;6.13;;
7191;SDS011;3637;51.494;11.958;2024-01-30T04:28:29;7.67;;;6.30;;
7191;SDS011;3637;51.494;11.958;2024-01-30T04:31:31;9.83;;;6.20;;
7191;SDS011;3637;51.494;11.958;2024-01-30T04:34:35;9.90;;;6.90;;
7191;SDS011;3637;51.494;11.958;2024-01-30T04:37:39;11.07;;;6.10;;
7191;SDS011;3637;51.494;11.958;2024-01-30T04:40:44;9.60;;;6.60;;
7191;SDS011;3637;51.494;11.958;2024-01-30T04:43:46;8.37;;;6.33;;
7191;SDS011;3637;51.494;11.958;2024-01-30T04:46:48;7.50;;;5.90;;
7191;SDS011;3637;51.494;11.958;2024-01-30T04:49:51;7.90;;;6.50;;
7191;SDS011;3637;51.494;11.958;2024-01-30T04:52:54;11.87;;;6.50;;
7191;SDS011;3637;51.494;11.958;2024-01-30T04:56:03;9.53;;;6.50;;
7191;SDS011;3637;51.494;11.958;2024-01-30T04:59:06;8.93;;;6.20;;
7191;SDS011;3637;51.494;11.958;2024-01-30T05:02:09;9.17;;;6.40;;
7191;SDS011;3637;51.494;11.958;2024-01-30T05:05:12;7.87;;;5.97;;
7191;SDS011;3637;51.494;11.958;2024-01-30T05:08:14;8.40;;;6.73;;
7191;SDS011;3637;51.494;11.958;2024-01-30T05:11:19;10.63;;;6.63;;
7191;SDS011;3637;51.494;11.958;2024-01-30T05:14:32;8.57;;;6.50;;
7191;SDS011;3637;51.494;11.958;2024-01-30T05:17:36;8.63;;;6.07;;
7191;SDS011;3637;51.494;11.958;2024-01-30T05:20:41;8.73;;;6.80;;
7191;SDS011;3637;51.494;11.958;2024-01-30T05:23:44;8.67;;;5.93;;
7191;SDS011;3637;51.494;11.958;2024-01-30T05:26:48;9.90;;;6.53;;
7191;SDS011;3637;51.494;11.958;2024-01-30T05:29:51;9.03;;;6.07;;
7191;SDS011;3637;51.494;11.958;2024-01-30T05:32:55;9.07;;;6.13;;
7191;SDS011;3637;51.494;11.958;2024-01-30T05:35:57;9.77;;;6.70;;
7191;SDS011;3637;51.494;11.958;2024-01-30T05:38:59;13.23;;;7.30;;
7191;SDS011;3637;51.494;11.958;2024-01-30T05:42:13;8.43;;;6.17;;
7191;SDS011;3637;51.494;11.958;2024-01-30T05:45:19;11.20;;;6.20;;
7191;SDS011;3637;51.494;11.958;2024-01-30T05:48:23;13.07;;;6.17;;
7191;SDS011;3637;51.494;11.958;2024-01-30T05:51:25;9.83;;;6.83;;
7191;SDS011;3637;51.494;11.958;2024-01-30T05:54:28;8.27;;;6.50;;
7191;SDS011;3637;51.494;11.958;2024-01-30T05:57:31;8.27;;;6.73;;
7191;SDS011;3637;51.494;11.958;2024-01-30T06:00:33;9.80;;;6.87;;
7191;SDS011;3637;51.494;11.958;2024-01-30T06:03:36;12.03;;;8.00;;
7191;SDS011;3637;51.494;11.958;2024-01-30T06:06:41;10.80;;;7.70;;
7191;SDS011;3637;51.494;11.958;2024-01-30T06:09:43;11.43;;;7.00;;
7191;SDS011;3637;51.494;11.958;2024-01-30T06:12:48;9.40;;;6.80;;
7191;SDS011;3637;51.494;11.958;2024-01-30T06:15:50;8.33;;;6.17;;
7191;SDS011;3637;51.494;11.958;2024-01-30T06:18:53;7.67;;;5.63;;
7191;SDS011;3637;51.494;11.958;2024-01-30T06:21:55;7.37;;;5.73;;
7191;SDS011;3637;51.494;11.958;2024-01-30T06:25:00;8.63;;;6.30;;
7191;SDS011;3637;51.494;11.958;2024-01-30T06:28:05;10.63;;;6.50;;
7191;SDS011;3637;51.494;11.958;2024-01-30T06:31:08;8.17;;;5.93;;
7191;SDS011;3637;51.494;11.958;2024-01-30T06:34:09;8.47;;;6.00;;
7191;SDS011;3637;51.494;11.958;2024-01-30T06:37:12;8.63;;;6.00;;
7191;SDS011;3637;51.494;11.958;2024-01-30T06:40:24;9.70;;;6.27;;
7191;SDS011;3637;51.494;11.958;2024-01-30T06:43:31;9.07;;;5.73;;
7191;SDS011;3637;51.494;11.958;2024-01-30T06:46:34;8.33;;;6.20;;
7191;SDS011;3637;51.494;11.958;2024-01-30T06:49:38;9.00;;;5.83;;
7191;SDS011;3637;51.494;11.958;2024-01-30T06:52:42;8.53;;;5.50;;
7191;SDS011;3637;51.494;11.958;2024-01-30T06:55:46;7.30;;;6.00;;
7191;SDS011;3637;51.494;11.958;2024-01-30T06:58:50;8.33;;;6.27;;
7191;SDS011;3637;51.494;11.958;2024-01-30T07:01:52;12.03;;;6.20;;
7191;SDS011;3637;51.494;11.958;2024-01-30T07:04:54;11.10;;;6.50;;
7191;SDS011;3637;51.494;11.958;2024-01-30T07:07:57;16.40;;;9.47;;
7191;SDS011;3637;51.494;11.958;2024-01-30T07:11:17;14.07;;;7.77;;
7191;SDS011;3637;51.494;11.958;2024-01-30T07:17:53;9.40;;;6.10;;
7191;SDS011;3637;51.494;11.958;2024-01-30T07:20:55;9.10;;;5.53;;
7191;SDS011;3637;51.494;11.958;2024-01-30T07:23:58;9.67;;;6.10;;
7191;SDS011;3637;51.494;11.958;2024-01-30T07:27:00;9.13;;;6.03;;
7191;SDS011;3637;51.494;11.958;2024-01-30T07:30:16;11.03;;;6.37;;
7191;SDS011;3637;51.494;11.958;2024-01-30T07:33:26;14.47;;;7.43;;
7191;SDS011;3637;51.494;11.958;2024-01-30T07:36:29;10.80;;;7.20;;
7191;SDS011;3637;51.494;11.958;2024-01-30T07:39:32;9.93;;;7.13;;
7191;SDS011;3637;51.494;11.958;2024-01-30T07:42:45;10.20;;;7.10;;
7191;SDS011;3637;51.494;11.958;2024-01-30T07:45:54;11.37;;;6.93;;
7191;SDS011;3637;51.494;11.958;2024-01-30T07:48:56;10.43;;;6.87;;
7191;SDS011;3637;51.494;11.958;2024-01-30T07:51:59;8.63;;;5.93;;
7191;SDS011;3637;51.494;11.958;2024-01-30T07:55:06;10.20;;;6.30;;
7191;SDS011;3637;51.494;11.958;2024-01-30T07:58:11;9.83;;;6.27;;
7191;SDS011;3637;51.494;11.958;2024-01-30T08:01:20;8.10;;;5.73;;
7191;SDS011;3637;51.494;11.958;2024-01-30T08:04:22;12.97;;;6.20;;
7191;SDS011;3637;51.494;11.958;2024-01-30T08:07:24;8.97;;;6.03;;
7191;SDS011;3637;51.494;11.958;2024-01-30T08:10:32;9.37;;;6.60;;
7191;SDS011;3637;51.494;11.958;2024-01-30T08:13:37;12.77;;;6.33;;
7191;SDS011;3637;51.494;11.958;2024-01-30T08:16:40;10.20;;;6.37;;
7191;SDS011;3637;51.494;11.958;2024-01-30T08:19:42;9.60;;;6.30;;
7191;SDS011;3637;51.494;11.958;2024-01-30T08:22:46;11.20;;;6.37;;
7191;SDS011;3637;51.494;11.958;2024-01-30T08:25:49;8.07;;;6.10;;
7191;SDS011;3637;51.494;11.958;2024-01-30T08:29:03;8.90;;;5.93;;
7191;SDS011;3637;51.494;11.958;2024-01-30T08:32:07;10.80;;;6.23;;
7191;SDS011;3637;51.494;11.958;2024-01-30T08:35:12;9.17;;;5.87;;
7191;SDS011;3637;51.494;11.958;2024-01-30T08:38:26;9.90;;;5.90;;
7191;SDS011;3637;51.494;11.958;2024-01-30T08:41:28;8.10;;;5.93;;
7191;SDS011;3637;51.494;11.958;2024-01-30T08:44:30;12.93;;;5.90;;
7191;SDS011;3637;51.494;11.958;2024-01-30T08:47:38;8.57;;;5.60;;
7191;SDS011;3637;51.494;11.958;2024-01-30T08:50:41;10.77;;;5.63;;
7191;SDS011;3637;51.494;11.958;2024-01-30T08:53:43;6.87;;;5.43;;
7191;SDS011;3637;51.494;11.958;2024-01-30T08:56:45;8.03;;;5.37;;
7191;SDS011;3637;51.494;11.958;2024-01-30T08:59:48;8.73;;;5.63;;
7191;SDS011;3637;51.494;11.958;2024-01-30T09:02:52;8.13;;;5.63;;
7191;SDS011;3637;51.494;11.958;2024-01-30T09:05:54;8.17;;;5.53;;
7191;SDS011;3637;51.494;11.958;2024-01-30T09:09:01;10.47;;;5.90;;
7191;SDS011;3637;51.494;11.958;2024-01-30T09:12:08;8.37;;;5.70;;
7191;SDS011;3637;51.494;11.958;2024-01-30T09:15:12;13.40;;;7.83;;
7191;SDS011;3637;51.494;11.958;2024-01-30T09:18:18;9.93;;;6.07;;
7191;SDS011;3637;51.494;11.958;2024-01-30T09:21:20;7.17;;;5.63;;
7191;SDS011;3637;51.494;11.958;2024-01-30T09:24:23;7.47;;;5.17;;
7191;SDS011;3637;51.494;11.958;2024-01-30T09:27:28;8.00;;;5.10;;
7191;SDS011;3637;51.494;11.958;2024-01-30T09:30:31;6.53;;;5.07;;
7191;SDS011;3637;51.494;11.958;2024-01-30T09:33:36;7.70;;;5.13;;
7191;SDS011;3637;51.494;11.958;2024-01-30T09:36:40;6.63;;;4.97;;
7191;SDS011;3637;51.494;11.958;2024-01-30T09:39:42;8.63;;;4.77;;
7191;SDS011;3637;51.494;11.958;2024-01-30T09:42:45;7.07;;;5.10;;
7191;SDS011;3637;51.494;11.958;2024-01-30T09:45:52;7.30;;;5.27;;
7191;SDS011;3637;51.494;11.958;2024-01-30T09:48:58;7.63;;;5.03;;
7191;SDS011;3637;51.494;11.958;2024-01-30T09:52:05;6.07;;;4.83;;
7191;SDS011;3637;51.494;11.958;2024-01-30T09:55:08;6.17;;;4.50;;
7191;SDS011;3637;51.494;11.958;2024-01-30T09:58:12;6.80;;;4.83;;
7191;SDS011;3637;51.494;11.958;2024-01-30T10:01:16;7.70;;;5.17;;
7191;SDS011;3637;51.494;11.958;2024-01-30T10:04:20;6.43;;;4.93;;
7191;SDS011;3637;51.494;11.958;2024-01-30T10:07:22;7.10;;;4.83;;
7191;SDS011;3637;51.494;11.958;2024-01-30T10:10:24;7.63;;;4.60;;
7191;SDS011;3637;51.494;11.958;2024-01-30T10:13:28;8.27;;;5.17;;
7191;SDS011;3637;51.494;11.958;2024-01-30T10:16:31;9.33;;;4.37;;
7191;SDS011;3637;51.494;11.958;2024-01-30T10:19:34;10.17;;;4.97;;
7191;SDS011;3637;51.494;11.958;2024-01-30T10:22:39;8.37;;;5.13;;
7191;SDS011;3637;51.494;11.958;2024-01-30T10:25:42;6.57;;;4.77;;
7191;SDS011;3637;51.494;11.958;2024-01-30T10:28:45;7.17;;;4.73;;
7191;SDS011;3637;51.494;11.958;2024-01-30T10:31:57;6.03;;;4.53;;
7191;SDS011;3637;51.494;11.958;2024-01-30T10:35:04;6.63;;;4.33;;
7191;SDS011;3637;51.494;11.958;2024-01-30T10:38:12;5.27;;;4.60;;
7191;SDS011;3637;51.494;11.958;2024-01-30T10:41:17;7.97;;;4.87;;
7191;SDS011;3637;51.494;11.958;2024-01-30T10:44:25;6.93;;;4.87;;
7191;SDS011;3637;51.494;11.958;2024-01-30T10:47:32;6.37;;;4.37;;
7191;SDS011;3637;51.494;11.958;2024-01-30T10:53:56;9.80;;;5.20;;
7191;SDS011;3637;51.494;11.958;2024-01-30T10:56:59;6.57;;;4.47;;
7191;SDS011;3637;51.494;11.958;2024-01-30T11:00:04;7.27;;;4.80;;
7191;SDS011;3637;51.494;11.958;2024-01-30T11:03:11;10.47;;;5.37;;
7191;SDS011;3637;51.494;11.958;2024-01-30T11:06:17;9.30;;;5.30;;
7191;SDS011;3637;51.494;11.958;2024-01-30T11:09:20;7.87;;;5.30;;
7191;SDS011;3637;51.494;11.958;2024-01-30T11:12:23;6.67;;;4.67;;
7191;SDS011;3637;51.494;11.958;2024-01-30T11:15:26;6.50;;;4.77;;
7191;SDS011;3637;51.494;11.958;2024-01-30T11:18:32;9.77;;;5.13;;
7191;SDS011;3637;51.494;11.958;2024-01-30T11:21:44;7.73;;;5.17;;
7191;SDS011;3637;51.494;11.958;2024-01-30T11:24:46;6.47;;;5.00;;
7191;SDS011;3637;51.494;11.958;2024-01-30T11:27:54;7.23;;;5.10;;
7191;SDS011;3637;51.494;11.958;2024-01-30T11:31:02;7.60;;;5.33;;
7191;SDS011;3637;51.494;11.958;2024-01-30T11:34:15;7.70;;;4.63;;
7191;SDS011;3637;51.494;11.958;2024-01-30T11:37:27;6.67;;;4.97;;
7191;SDS011;3637;51.494;11.958;2024-01-30T11:40:30;5.23;;;4.73;;
7191;SDS011;3637;51.494;11.958;2024-01-30T11:43:34;9.13;;;5.17;;
7191;SDS011;3637;51.494;11.958;2024-01-30T11:46:40;11.50;;;5.10;;
7191;SDS011;3637;51.494;11.958;2024-01-30T11:49:42;9.97;;;5.40;;
7191;SDS011;3637;51.494;11.958;2024-01-30T11:52:46;6.23;;;4.93;;
7191;SDS011;3637;51.494;11.958;2024-01-30T11:55:50;7.97;;;5.00;;
7191;SDS011;3637;51.494;11.958;2024-01-30T11:58:54;6.13;;;4.80;;
7191;SDS011;3637;51.494;11.958;2024-01-30T12:02:01;7.27;;;5.63;;
7191;SDS011;3637;51.494;11.958;2024-01-30T12:05:04;6.83;;;5.13;;
7191;SDS011;3637;51.494;11.958;2024-01-30T12:08:13;7.07;;;5.10;;
7191;SDS011;3637;51.494;11.958;2024-01-30T12:11:16;6.47;;;4.77;;
7191;SDS011;3637;51.494;11.958;2024-01-30T12:14:18;7.27;;;5.60;;
7191;SDS011;3637;51.494;11.958;2024-01-30T12:17:27;19.30;;;11.07;;
7191;SDS011;3637;51.494;11.958;2024-01-30T12:20:30;7.40;;;5.50;;
7191;SDS011;3637;51.494;11.958;2024-01-30T12:23:36;7.00;;;5.23;;
7191;SDS011;3637;51.494;11.958;2024-01-30T12:26:38;6.43;;;5.20;;
7191;SDS011;3637;51.494;11.958;2024-01-30T12:29:41;7.70;;;5.40;;
7191;SDS011;3637;51.494;11.958;2024-01-30T12:32:44;8.33;;;5.37;;
7191;SDS011;3637;51.494;11.958;2024-01-30T12:35:47;10.10;;;5.23;;
7191;SDS011;3637;51.494;11.958;2024-01-30T12:38:51;6.03;;;5.23;;
7191;SDS011;3637;51.494;11.958;2024-01-30T12:41:53;8.20;;;5.73;;
7191;SDS011;3637;51.494;11.958;2024-01-30T12:44:57;9.67;;;5.83;;
7191;SDS011;3637;51.494;11.958;2024-01-30T12:48:01;6.60;;;5.03;;
7191;SDS011;3637;51.494;11.958;2024-01-30T12:51:05;8.80;;;5.00;;
7191;SDS011;3637;51.494;11.958;2024-01-30T12:54:18;8.80;;;5.97;;
7191;SDS011;3637;51.494;11.958;2024-01-30T12:57:25;8.13;;;5.30;;
7191;SDS011;3637;51.494;11.958;2024-01-30T13:00:31;7.53;;;5.40;;
7191;SDS011;3637;51.494;11.958;2024-01-30T13:03:37;6.73;;;5.43;;
7191;SDS011;3637;51.494;11.958;2024-01-30T13:06:39;8.20;;;5.70;;
7191;SDS011;3637;51.494;11.958;2024-01-30T13:09:47;7.17;;;5.20;;
7191;SDS011;3637;51.494;11.958;2024-01-30T13:12:49;7.47;;;4.90;;
7191;SDS011;3637;51.494;11.958;2024-01-30T13:15:52;6.87;;;5.00;;
7191;SDS011;3637;51.494;11.958;2024-01-30T13:18:54;7.57;;;5.40;;
7191;SDS011;3637;51.494;11.958;2024-01-30T13:21:56;8.97;;;5.57;;
7191;SDS011;3637;51.494;11.958;2024-01-30T13:25:02;7.27;;;5.30;;
7191;SDS011;3637;51.494;11.958;2024-01-30T13:28:05;7.43;;;5.50;;
7191;SDS011;3637;51.494;11.958;2024-01-30T13:31:08;8.73;;;5.57;;
7191;SDS011;3637;51.494;11.958;2024-01-30T13:34:10;8.30;;;5.53;;
7191;SDS011;3637;51.494;11.958;2024-01-30T13:37:14;11.20;;;6.00;;
7191;SDS011;3637;51.494;11.958;2024-01-30T13:40:24;8.13;;;5.17;;
7191;SDS011;3637;51.494;11.958;2024-01-30T13:43:26;8.50;;;5.30;;
7191;SDS011;3637;51.494;11.958;2024-01-30T13:46:29;11.17;;;6.20;;
7191;SDS011;3637;51.494;11.958;2024-01-30T13:49:32;11.37;;;5.77;;
7191;SDS011;3637;51.494;11.958;2024-01-30T13:52:35;8.97;;;5.87;;
7191;SDS011;3637;51.494;11.958;2024-01-30T13:55:38;7.90;;;5.80;;
7191;SDS011;3637;51.494;11.958;2024-01-30T13:58:47;7.57;;;5.53;;
7191;SDS011;3637;51.494;11.958;2024-01-30T14:01:53;6.87;;;5.67;;
7191;SDS011;3637;51.494;11.958;2024-01-30T14:05:36;7.73;;;5.77;;
7191;SDS011;3637;51.494;11.958;2024-01-30T14:08:37;9.60;;;5.83;;
7191;SDS011;3637;51.494;11.958;2024-01-30T14:11:44;7.60;;;5.43;;
7191;SDS011;3637;51.494;11.958;2024-01-30T14:14:56;7.07;;;5.53;;
7191;SDS011;3637;51.494;11.958;2024-01-30T14:18:05;8.37;;;5.43;;
7191;SDS011;3637;51.494;11.958;2024-01-30T14:21:08;5.87;;;5.23;;
7191;SDS011;3637;51.494;11.958;2024-01-30T14:24:12;8.17;;;6.20;;
7191;SDS011;3637;51.494;11.958;2024-01-30T14:27:23;7.73;;;5.90;;
7191;SDS011;3637;51.494;11.958;2024-01-30T14:30:27;9.43;;;6.00;;
7191;SDS011;3637;51.494;11.958;2024-01-30T14:33:30;8.60;;;6.20;;
7191;SDS011;3637;51.494;11.958;2024-01-30T14:36:33;8.33;;;5.60;;
7191;SDS011;3637;51.494;11.958;2024-01-30T14:39:37;7.27;;;5.90;;
7191;SDS011;3637;51.494;11.958;2024-01-30T14:42:42;9.23;;;5.97;;
7191;SDS011;3637;51.494;11.958;2024-01-30T14:45:46;7.83;;;5.63;;
7191;SDS011;3637;51.494;11.958;2024-01-30T14:48:53;7.40;;;5.57;;
7191;SDS011;3637;51.494;11.958;2024-01-30T14:51:59;12.30;;;6.13;;
7191;SDS011;3637;51.494;11.958;2024-01-30T14:55:10;10.10;;;6.03;;
7191;SDS011;3637;51.494;11.958;2024-01-30T14:58:29;11.13;;;5.77;;
7191;SDS011;3637;51.494;11.958;2024-01-30T15:01:34;8.20;;;6.43;;
7191;SDS011;3637;51.494;11.958;2024-01-30T15:04:37;8.00;;;6.47;;
7191;SDS011;3637;51.494;11.958;2024-01-30T15:07:41;8.07;;;6.17;;
7191;SDS011;3637;51.494;11.958;2024-01-30T15:10:44;9.07;;;6.30;;
7191;SDS011;3637;51.494;11.958;2024-01-30T15:13:47;8.93;;;6.50;;
7191;SDS011;3637;51.494;11.958;2024-01-30T15:16:55;10.10;;;6.90;;
7191;SDS011;3637;51.494;11.958;2024-01-30T15:20:01;10.30;;;7.70;;
7191;SDS011;3637;51.494;11.958;2024-01-30T15:23:06;12.33;;;7.63;;
7191;SDS011;3637;51.494;11.958;2024-01-30T15:26:18;13.50;;;8.53;;
7191;SDS011;3637;51.494;11.958;2024-01-30T15:29:38;14.90;;;8.00;;
7191;SDS011;3637;51.494;11.958;2024-01-30T15:32:46;11.87;;;7.53;;
7191;SDS011;3637;51.494;11.958;2024-01-30T15:35:56;10.50;;;7.27;;
7191;SDS011;3637;51.494;11.958;2024-01-30T15:39:01;9.57;;;7.33;;
7191;SDS011;3637;51.494;11.958;2024-01-30T15:42:06;11.60;;;7.80;;
7191;SDS011;3637;51.494;11.958;2024-01-30T15:45:12;10.17;;;7.63;;
7191;SDS011;3637;51.494;11.958;2024-01-30T15:48:16;9.37;;;7.43;;
7191;SDS011;3637;51.494;11.958;2024-01-30T15:51:21;9.27;;;6.53;;
7191;SDS011;3637;51.494;11.958;2024-01-30T15:54:25;10.60;;;7.23;;
7191;SDS011;3637;51.494;11.958;2024-01-30T15:57:27;12.93;;;8.00;;
7191;SDS011;3637;51.494;11.958;2024-01-30T16:00:30;10.33;;;7.13;;
7191;SDS011;3637;51.494;11.958;2024-01-30T16:03:33;10.80;;;7.90;;
7191;SDS011;3637;51.494;11.958;2024-01-30T16:06:36;10.50;;;7.37;;
7191;SDS011;3637;51.494;11.958;2024-01-30T16:09:38;12.33;;;6.67;;
7191;SDS011;3637;51.494;11.958;2024-01-30T16:12:40;10.13;;;7.37;;
7191;SDS011;3637;51.494;11.958;2024-01-30T16:15:46;14.30;;;7.43;;
7191;SDS011;3637;51.494;11.958;2024-01-30T16:18:48;15.43;;;7.77;;
7191;SDS011;3637;51.494;11.958;2024-01-30T16:21:51;9.17;;;7.50;;
7191;SDS011;3637;51.494;11.958;2024-01-30T16:24:53;12.90;;;8.93;;
7191;SDS011;3637;51.494;11.958;2024-01-30T16:27:56;14.90;;;8.93;;
7191;SDS011;3637;51.494;11.958;2024-01-30T16:31:00;11.07;;;8.20;;
7191;SDS011;3637;51.494;11.958;2024-01-30T16:34:03;13.70;;;9.57;;
7191;SDS011;3637;51.494;11.958;2024-01-30T16:37:06;13.40;;;9.07;;
7191;SDS011;3637;51.494;11.958;2024-01-30T16:40:09;11.73;;;8.13;;
7191;SDS011;3637;51.494;11.958;2024-01-30T16:43:12;9.97;;;7.53;;
7191;SDS011;3637;51.494;11.958;2024-01-30T16:46:15;12.83;;;8.03;;
7191;SDS011;3637;51.494;11.958;2024-01-30T16:49:18;10.80;;;7.73;;
7191;SDS011;3637;51.494;11.958;2024-01-30T16:52:21;11.13;;;7.43;;
7191;SDS011;3637;51.494;11.958;2024-01-30T16:55:24;9.37;;;7.50;;
7191;SDS011;3637;51.494;11.958;2024-01-30T16:58:26;10.43;;;7.33;;
7191;SDS011;3637;51.494;11.958;2024-01-30T17:01:31;11.37;;;7.70;;
7191;SDS011;3637;51.494;11.958;2024-01-30T17:04:33;11.40;;;7.43;;
7191;SDS011;3637;51.494;11.958;2024-01-30T17:07:36;9.70;;;7.53;;
7191;SDS011;3637;51.494;11.958;2024-01-30T17:10:38;10.43;;;7.93;;
7191;SDS011;3637;51.494;11.958;2024-01-30T17:13:48;12.27;;;8.07;;
7191;SDS011;3637;51.494;11.958;2024-01-30T17:17:02;11.87;;;8.37;;
7191;SDS011;3637;51.494;11.958;2024-01-30T17:20:44;9.80;;;8.43;;
7191;SDS011;3637;51.494;11.958;2024-01-30T17:23:55;13.63;;;8.83;;
7191;SDS011;3637;51.494;11.958;2024-01-30T17:27:13;10.53;;;8.13;;
7191;SDS011;3637;51.494;11.958;2024-01-30T17:30:37;11.40;;;7.80;;
7191;SDS011;3637;51.494;11.958;2024-01-30T17:33:57;10.17;;;7.83;;
7191;SDS011;3637;51.494;11.958;2024-01-30T17:37:13;11.90;;;8.03;;
7191;SDS011;3637;51.494;11.958;2024-01-30T17:40:28;11.90;;;8.67;;
7191;SDS011;3637;51.494;11.958;2024-01-30T17:43:30;12.10;;;8.40;;
7191;SDS011;3637;51.494;11.958;2024-01-30T17:46:39;12.30;;;8.47;;
7191;SDS011;3637;51.494;11.958;2024-01-30T17:50:09;14.37;;;8.70;;
7191;SDS011;3637;51.494;11.958;2024-01-30T17:53:21;12.60;;;8.77;;
7191;SDS011;3637;51.494;11.958;2024-01-30T17:56:26;13.13;;;8.53;;
7191;SDS011;3637;51.494;11.958;2024-01-30T17:59:31;12.77;;;8.27;;
7191;SDS011;3637;51.494;11.958;2024-01-30T18:02:38;11.43;;;8.13;;
7191;SDS011;3637;51.494;11.958;2024-01-30T18:06:02;12.87;;;8.57;;
7191;SDS011;3637;51.494;11.958;2024-01-30T18:09:15;14.27;;;9.07;;
7191;SDS011;3637;51.494;11.958;2024-01-30T18:12:19;14.03;;;8.43;;
7191;SDS011;3637;51.494;11.958;2024-01-30T18:15:37;11.17;;;8.43;;
7191;SDS011;3637;51.494;11.958;2024-01-30T18:18:47;12.70;;;8.67;;
7191;SDS011;3637;51.494;11.958;2024-01-30T18:21:54;12.10;;;8.57;;
7191;SDS011;3637;51.494;11.958;2024-01-30T18:25:04;14.03;;;8.93;;
7191;SDS011;3637;51.494;11.958;2024-01-30T18:28:12;11.97;;;8.13;;
7191;SDS011;3637;51.494;11.958;2024-01-30T18:31:17;12.63;;;8.93;;
7191;SDS011;3637;51.494;11.958;2024-01-30T18:34:23;10.40;;;7.93;;
7191;SDS011;3637;51.494;11.958;2024-01-30T18:37:33;12.57;;;8.43;;
7191;SDS011;3637;51.494;11.958;2024-01-30T18:40:36;10.97;;;8.27;;
7191;SDS011;3637;51.494;11.958;2024-01-30T18:43:39;11.63;;;9.27;;
7191;SDS011;3637;51.494;11.958;2024-01-30T18:46:41;12.33;;;8.97;;
7191;SDS011;3637;51.494;11.958;2024-01-30T18:49:54;9.47;;;8.40;;
7191;SDS011;3637;51.494;11.958;2024-01-30T18:53:03;10.83;;;8.37;;